Teton, Idaho
Current Conditions -  °F | °C
As of 5:53 PM on Monday 26 Jan 2015 (Local Time) from KRXE Reporting Station
Clear Clear  
Wind Chill:   Ceiling: Unl
Heat Index:   Visibility: 10mi
Dew Point: -2°   Wind: 3mph
Humidity: 88%   Direction: 60°ENE
Pressure: 30.24"   Gusts: NA
Location:  43.89°N, 111.68°W
Report Text: KRXE 270053Z AUTO 06003KT 10SM CLR 00/M02 A3024 RMK AO2 SLP279 T00001017
Loading
Personal Weather Stations






























Interactive Weather Map New forecast layout! Learn more

10-Day Weather Forecast

Advertisements
Track Severe Weather on mobile